Time;durP1;ratioP1;P1;durP2;ratioP2;P2;SDS_P1;SDS_P2;PMS_P1;PMS_P2;Temp;Humidity;BMP_temperature;BMP_pressure;BME280_temperature;BME280_humidity;BME280_pressure;Samples;Min_cycle;Max_cycle;Signal;HPM_P1;HPM_P2
2021/09/04 00:00:22;;;;;;;13.30;8.13;;;;;;;20.24;65.37;100417.59;5037393;28;20081;-67
2021/09/04 00:02:49;;;;;;;19.05;8.13;;;;;;;20.31;65.58;100429.22;5038232;28;20060;-64
2021/09/04 00:05:16;;;;;;;19.63;8.73;;;;;;;20.22;65.88;100426.47;5038772;28;20708;-64
2021/09/04 00:07:43;;;;;;;18.75;9.50;;;;;;;20.14;65.73;100416.03;5041507;28;20056;-65
2021/09/04 00:10:11;;;;;;;19.10;8.63;;;;;;;20.15;66.36;100426.19;5036378;28;20084;-68
2021/09/04 00:12:37;;;;;;;16.25;8.85;;;;;;;20.11;66.24;100420.41;5040142;28;20124;-68
2021/09/04 00:15:05;;;;;;;17.80;8.45;;;;;;;20.04;67.04;100411.63;5039012;28;20124;-66
2021/09/04 00:17:33;;;;;;;23.63;9.02;;;;;;;20.05;66.70;100418.94;5038188;28;20084;-66
2021/09/04 00:20:00;;;;;;;19.05;8.45;;;;;;;19.99;66.96;100413.84;5031681;28;20124;-66
2021/09/04 00:22:27;;;;;;;18.38;9.68;;;;;;;19.99;66.67;100414.66;5036402;28;20083;-65
2021/09/04 00:24:54;;;;;;;18.08;9.90;;;;;;;19.85;66.88;100405.63;5037149;28;20120;-65
2021/09/04 00:27:21;;;;;;;19.85;9.98;;;;;;;19.81;67.11;100399.00;5047406;28;20073;-64
2021/09/04 00:29:47;;;;;;;20.15;10.15;;;;;;;19.97;67.07;100419.06;5041805;28;20080;-64
2021/09/04 00:32:14;;;;;;;21.75;9.55;;;;;;;19.98;67.15;100410.19;5043309;28;20043;-64
2021/09/04 00:34:41;;;;;;;26.75;10.60;;;;;;;20.01;67.02;100415.16;5045799;28;20103;-63
2021/09/04 00:37:08;;;;;;;18.55;9.30;;;;;;;19.87;66.62;100374.94;5038558;28;20131;-62
2021/09/04 00:39:35;;;;;;;18.88;9.77;;;;;;;19.84;66.66;100367.16;5038176;28;20602;-62
2021/09/04 00:42:02;;;;;;;23.20;9.93;;;;;;;20.10;66.42;100407.41;5031845;28;20145;-62
2021/09/04 00:44:29;;;;;;;23.52;10.32;;;;;;;19.96;66.60;100395.53;5033897;28;20037;-62
2021/09/04 00:47:03;;;;;;;24.00;9.23;;;;;;;19.89;67.19;100383.91;5031101;28;20124;-62
2021/09/04 00:49:32;;;;;;;19.52;10.48;;;;;;;19.86;67.32;100393.13;5041807;28;20124;-62
2021/09/04 00:52:01;;;;;;;16.85;8.82;;;;;;;19.78;67.55;100394.03;5036655;28;20137;-62
2021/09/04 00:54:28;;;;;;;19.27;8.70;;;;;;;19.62;68.24;100386.13;5037269;28;20124;-62
2021/09/04 00:56:55;;;;;;;17.70;9.55;;;;;;;19.57;67.93;100383.50;5035346;28;20081;-62
2021/09/04 00:59:24;;;;;;;16.73;10.15;;;;;;;19.49;67.78;100358.91;5048946;28;20079;-62
2021/09/04 01:02:10;;;;;;;23.17;9.55;;;;;;;19.57;68.08;100388.34;5032843;28;20115;-62
2021/09/04 01:04:37;;;;;;;17.05;9.20;;;;;;;19.56;68.28;100386.69;5030244;28;20088;-61
2021/09/04 01:07:04;;;;;;;17.60;9.45;;;;;;;19.49;68.56;100387.25;5043964;28;20072;-62
2021/09/04 01:09:31;;;;;;;18.10;7.53;;;;;;;19.38;68.30;100368.97;5039267;28;20464;-61
2021/09/04 01:11:58;;;;;;;18.67;8.45;;;;;;;19.59;67.89;100386.00;5039846;28;20041;-61
2021/09/04 01:14:25;;;;;;;17.08;9.35;;;;;;;19.57;68.13;100377.84;5037053;28;20133;-62
2021/09/04 01:16:52;;;;;;;16.08;8.80;;;;;;;19.57;68.12;100380.66;5032107;28;20378;-64
2021/09/04 01:19:19;;;;;;;18.80;9.20;;;;;;;19.48;68.25;100379.91;5037767;28;20069;-64
2021/09/04 01:21:46;;;;;;;16.85;8.80;;;;;;;19.50;68.43;100383.22;5039737;28;20057;-63
2021/09/04 01:24:12;;;;;;;18.08;9.77;;;;;;;19.46;68.30;100382.25;5035495;28;20136;-62
2021/09/04 01:26:39;;;;;;;22.92;9.52;;;;;;;19.32;68.19;100353.41;5045291;28;20129;-62
2021/09/04 01:29:06;;;;;;;21.38;10.13;;;;;;;19.52;68.19;100380.88;5033706;28;20136;-62
2021/09/04 01:31:33;;;;;;;25.17;9.70;;;;;;;19.51;68.33;100362.22;5035105;28;20077;-63
2021/09/04 01:34:00;;;;;;;21.45;9.32;;;;;;;19.61;68.25;100372.31;5036009;28;20053;-65
2021/09/04 01:36:32;;;;;;;19.55;8.85;;;;;;;19.59;68.02;100369.84;5033936;28;20065;-64
2021/09/04 01:39:00;;;;;;;20.80;9.05;;;;;;;19.60;68.35;100365.81;5036995;28;20127;-65
2021/09/04 01:41:28;;;;;;;20.08;8.52;;;;;;;19.55;67.98;100348.19;5040497;28;20088;-66
2021/09/04 01:43:56;;;;;;;15.40;7.68;;;;;;;19.50;67.98;100343.56;5048222;28;20144;-66
2021/09/04 01:46:24;;;;;;;21.13;9.70;;;;;;;19.59;68.46;100358.50;5040534;28;20123;-66
2021/09/04 01:48:51;;;;;;;21.52;10.60;;;;;;;19.71;68.16;100371.09;5040269;28;20472;-65
2021/09/04 01:51:18;;;;;;;15.52;9.02;;;;;;;19.69;67.94;100368.59;5044224;28;20077;-65
2021/09/04 01:53:45;;;;;;;18.30;8.48;;;;;;;19.60;68.31;100376.31;5033805;28;20544;-67
2021/09/04 01:56:12;;;;;;;17.83;8.82;;;;;;;19.64;68.09;100361.13;5035049;28;20131;-68
2021/09/04 01:58:39;;;;;;;16.25;8.68;;;;;;;19.53;67.96;100357.06;5038168;28;20091;-67
2021/09/04 02:01:07;;;;;;;15.70;8.95;;;;;;;19.48;68.48;100365.75;5031348;28;20137;-66
2021/09/04 02:03:35;;;;;;;16.75;9.27;;;;;;;19.28;68.95;100341.94;5034158;28;20056;-64
2021/09/04 02:06:03;;;;;;;17.60;7.97;;;;;;;19.25;69.07;100336.94;5034945;28;20049;-62
2021/09/04 02:08:31;;;;;;;21.48;9.20;;;;;;;19.30;69.15;100350.06;5038098;28;20077;-62
2021/09/04 02:10:59;;;;;;;13.43;6.97;;;;;;;19.10;69.23;100346.03;5036425;28;20048;-62
2021/09/04 02:13:27;;;;;;;18.73;8.45;;;;;;;19.14;69.27;100349.84;5040954;28;20437;-62
2021/09/04 02:15:55;;;;;;;16.95;7.55;;;;;;;19.16;69.28;100347.50;5039826;28;20044;-64
2021/09/04 02:18:22;;;;;;;12.38;7.70;;;;;;;19.17;69.34;100361.28;5045395;28;20049;-64
2021/09/04 02:20:49;;;;;;;19.95;9.40;;;;;;;19.07;69.66;100346.72;5038201;28;20136;-63
2021/09/04 02:23:16;;;;;;;18.65;8.43;;;;;;;19.07;69.26;100341.88;5035045;28;20182;-65
2021/09/04 02:25:43;;;;;;;15.48;8.35;;;;;;;18.98;69.60;100329.81;5034422;28;20045;-64
2021/09/04 02:28:14;;;;;;;14.43;7.65;;;;;;;19.06;69.81;100345.06;5037927;28;20528;-64
2021/09/04 02:30:41;;;;;;;16.92;9.10;;;;;;;19.05;69.87;100349.09;5047223;28;20469;-64
2021/09/04 02:33:10;;;;;;;20.58;8.38;;;;;;;19.05;69.47;100346.25;5047308;28;20041;-61
2021/09/04 02:35:37;;;;;;;19.88;8.88;;;;;;;19.05;70.09;100351.91;5035259;28;20755;-60
2021/09/04 02:38:04;;;;;;;14.70;7.68;;;;;;;18.92;70.20;100340.50;5033648;28;20072;-61
2021/09/04 02:40:31;;;;;;;14.88;9.55;;;;;;;18.64;69.84;100292.03;5035823;28;20076;-60
2021/09/04 02:42:57;;;;;;;17.70;9.15;;;;;;;18.98;69.94;100348.78;5039725;28;20060;-60
2021/09/04 02:45:24;;;;;;;18.83;8.73;;;;;;;18.84;70.44;100338.56;5036789;28;20065;-63
2021/09/04 02:47:51;;;;;;;16.15;8.90;;;;;;;18.87;70.17;100339.84;5043892;28;20477;-65
2021/09/04 02:50:19;;;;;;;18.90;9.00;;;;;;;18.94;70.22;100354.31;5047082;28;20076;-66
2021/09/04 02:52:46;;;;;;;16.70;9.20;;;;;;;18.66;70.30;100303.81;5038427;28;20540;-65
2021/09/04 02:55:12;;;;;;;18.45;9.43;;;;;;;18.77;70.85;100328.91;5041605;28;20073;-66
2021/09/04 02:57:39;;;;;;;18.60;9.40;;;;;;;18.63;70.94;100321.50;5037753;28;20051;-64
2021/09/04 03:00:06;;;;;;;15.38;8.95;;;;;;;18.67;70.81;100330.94;5043555;28;20140;-64
2021/09/04 03:02:33;;;;;;;19.90;9.27;;;;;;;18.75;70.80;100339.75;5032251;28;20089;-64
2021/09/04 03:05:01;;;;;;;18.92;9.20;;;;;;;18.77;70.81;100343.91;5040392;28;20041;-64
2021/09/04 03:07:28;;;;;;;14.00;8.07;;;;;;;18.70;71.24;100347.25;5035040;28;20676;-64
2021/09/04 03:09:56;;;;;;;14.20;7.78;;;;;;;18.58;71.44;100335.81;5034041;28;20176;-64
2021/09/04 03:12:23;;;;;;;16.85;8.52;;;;;;;18.61;71.74;100346.44;5042096;28;20907;-65
2021/09/04 03:14:50;;;;;;;18.80;7.95;;;;;;;18.58;71.72;100341.47;5033610;28;20568;-64
2021/09/04 03:17:17;;;;;;;14.63;8.45;;;;;;;18.55;72.18;100349.81;5039378;28;21847;-65
2021/09/04 03:19:43;;;;;;;18.85;9.80;;;;;;;18.39;72.33;100318.41;5049338;28;20065;-64
2021/09/04 03:22:10;;;;;;;18.73;9.02;;;;;;;18.54;72.43;100334.84;5044919;28;20037;-65
2021/09/04 03:24:38;;;;;;;14.43;8.18;;;;;;;18.55;72.22;100336.50;5048211;28;20455;-63
2021/09/04 03:27:06;;;;;;;20.52;8.40;;;;;;;18.55;72.12;100328.00;5042699;28;20499;-63
2021/09/04 03:29:33;;;;;;;16.38;8.93;;;;;;;18.44;72.41;100309.78;5043813;28;20053;-62
2021/09/04 03:32:01;;;;;;;23.15;8.18;;;;;;;18.61;72.14;100325.81;5036771;28;20060;-64
2021/09/04 03:34:28;;;;;;;20.80;9.05;;;;;;;18.58;72.41;100313.19;5034582;28;20045;-61
2021/09/04 03:36:54;;;;;;;21.65;10.82;;;;;;;18.75;72.13;100322.78;5038366;28;20454;-64
2021/09/04 03:39:21;;;;;;;20.80;10.43;;;;;;;18.81;72.15;100327.09;5036922;28;20049;-68
2021/09/04 03:41:48;;;;;;;22.98;10.20;;;;;;;18.76;71.68;100307.47;5033045;28;20473;-69
2021/09/04 03:44:15;;;;;;;17.35;9.75;;;;;;;18.55;71.92;100274.28;5040676;28;20126;-74
2021/09/04 03:46:42;;;;;;;18.90;9.13;;;;;;;18.85;71.64;100311.09;5035720;28;20130;-73
2021/09/04 03:49:08;;;;;;;23.15;8.70;;;;;;;18.90;71.48;100320.19;5034390;28;22688;-71
2021/09/04 03:51:35;;;;;;;16.17;9.00;;;;;;;18.96;70.92;100317.16;5035122;28;20083;-70
2021/09/04 03:54:02;;;;;;;24.52;9.82;;;;;;;18.92;71.32;100311.38;5042759;28;20125;-70
2021/09/04 03:56:29;;;;;;;21.17;9.15;;;;;;;18.90;71.07;100308.03;5036166;28;20140;-70
2021/09/04 03:58:56;;;;;;;21.20;9.93;;;;;;;18.79;71.37;100306.78;5060172;28;20072;-65
2021/09/04 04:01:22;;;;;;;21.33;9.18;;;;;;;18.86;71.36;100309.91;5040895;28;20135;-65
2021/09/04 04:03:50;;;;;;;16.27;9.88;;;;;;;18.87;71.44;100320.91;5042595;28;20309;-64
2021/09/04 04:06:17;;;;;;;19.23;9.38;;;;;;;18.60;71.32;100279.75;5039783;28;20102;-64
2021/09/04 04:08:44;;;;;;;17.08;8.55;;;;;;;18.92;70.91;100311.38;5043675;28;20554;-62
2021/09/04 04:11:12;;;;;;;18.02;9.10;;;;;;;18.91;70.71;100287.91;5046803;28;20132;-69
2021/09/04 04:13:40;;;;;;;19.02;9.55;;;;;;;18.83;70.88;100297.25;5033845;28;20099;-62
2021/09/04 04:16:07;;;;;;;15.85;9.57;;;;;;;18.82;71.21;100306.09;5039268;28;20124;-61
2021/09/04 04:18:34;;;;;;;17.85;9.70;;;;;;;18.75;71.41;100305.81;5036660;28;20049;-63
2021/09/04 04:21:02;;;;;;;27.13;10.20;;;;;;;18.78;70.83;100307.97;5038337;28;20132;-64
2021/09/04 04:23:29;;;;;;;18.88;9.07;;;;;;;18.75;70.81;100294.50;5053338;28;20500;-64
2021/09/04 04:25:55;;;;;;;15.00;9.55;;;;;;;18.76;71.02;100305.47;5045565;28;20045;-61
2021/09/04 04:28:22;;;;;;;16.48;9.00;;;;;;;18.74;70.99;100307.81;5043163;28;20094;-61
2021/09/04 04:30:49;;;;;;;17.08;9.13;;;;;;;18.67;71.09;100296.19;5047793;28;20161;-72
2021/09/04 04:33:16;;;;;;;16.75;8.73;;;;;;;18.63;71.28;100293.22;5041816;28;20128;-62
2021/09/04 04:35:43;;;;;;;19.77;9.63;;;;;;;18.57;70.74;100290.91;5046151;28;20125;-62
2021/09/04 04:38:10;;;;;;;23.30;9.13;;;;;;;18.59;71.08;100295.03;5045196;28;20073;-63
2021/09/04 04:40:37;;;;;;;17.05;8.60;;;;;;;18.50;70.90;100282.97;5035570;28;20059;-61
2021/09/04 04:43:04;;;;;;;19.85;9.63;;;;;;;18.46;71.14;100288.47;5040717;28;20076;-61
2021/09/04 04:45:31;;;;;;;17.42;8.77;;;;;;;18.39;71.27;100287.31;5040537;28;20160;-60
2021/09/04 04:47:57;;;;;;;15.57;9.00;;;;;;;18.31;71.66;100285.38;5035641;28;20048;-60
2021/09/04 04:50:24;;;;;;;17.35;9.57;;;;;;;18.26;71.17;100275.09;5037464;28;20075;-60
2021/09/04 04:52:51;;;;;;;17.95;8.43;;;;;;;18.34;71.47;100288.34;5037642;28;20128;-59
2021/09/04 04:55:18;;;;;;;19.58;9.50;;;;;;;18.21;71.32;100269.63;5036066;28;20094;-59
2021/09/04 04:57:45;;;;;;;20.15;9.48;;;;;;;18.29;71.55;100284.88;5038605;28;20136;-59
2021/09/04 05:00:12;;;;;;;21.23;9.98;;;;;;;18.17;71.90;100272.28;5054014;28;20098;-58
2021/09/04 05:02:39;;;;;;;24.92;9.70;;;;;;;18.16;71.71;100279.13;5041848;28;20077;-59
2021/09/04 05:05:07;;;;;;;13.95;7.88;;;;;;;18.14;71.79;100281.44;5037578;28;20098;-59
2021/09/04 05:07:34;;;;;;;20.70;9.23;;;;;;;17.96;72.17;100275.03;5031831;28;20148;-59
2021/09/04 05:10:03;;;;;;;15.13;8.38;;;;;;;17.96;72.69;100279.84;5036176;28;20476;-59
2021/09/04 05:12:30;;;;;;;18.55;8.30;;;;;;;17.85;72.95;100284.22;5044872;28;20081;-59
2021/09/04 05:14:57;;;;;;;20.88;8.48;;;;;;;17.78;73.13;100284.72;5043273;28;20133;-60
2021/09/04 05:17:23;;;;;;;18.20;8.48;;;;;;;17.74;72.86;100278.03;5037533;28;20540;-60
2021/09/04 05:19:50;;;;;;;14.85;7.93;;;;;;;17.57;73.26;100272.41;5030543;28;20136;-59
2021/09/04 05:22:17;;;;;;;18.70;9.23;;;;;;;17.60;73.43;100278.22;5041177;28;20144;-61
2021/09/04 05:24:44;;;;;;;14.88;8.23;;;;;;;17.28;74.05;100246.56;5036857;28;20044;-59
2021/09/04 05:27:10;;;;;;;18.55;8.63;;;;;;;17.49;74.09;100271.28;5044598;28;20095;-59
2021/09/04 05:29:37;;;;;;;24.45;9.27;;;;;;;17.47;73.85;100279.25;5038459;28;20481;-58
2021/09/04 05:32:04;;;;;;;21.17;9.10;;;;;;;17.40;74.28;100276.94;5038980;28;20541;-59
2021/09/04 05:34:31;;;;;;;23.63;10.15;;;;;;;17.11;74.29;100255.03;5041507;28;20186;-58
2021/09/04 05:36:59;;;;;;;19.55;8.93;;;;;;;17.19;74.55;100276.75;5042639;28;20127;-59
2021/09/04 05:39:26;;;;;;;21.48;8.07;;;;;;;17.08;75.19;100271.78;5034924;28;20088;-59
2021/09/04 05:41:53;;;;;;;11.63;5.43;;;;;;;16.99;75.69;100288.69;5032122;28;20077;-59
2021/09/04 05:44:20;;;;;;;23.48;8.90;;;;;;;16.93;75.68;100282.41;5033576;28;20485;-59
2021/09/04 05:46:47;;;;;;;20.33;7.70;;;;;;;16.84;76.13;100277.91;5038000;28;20053;-61
2021/09/04 05:49:14;;;;;;;25.80;8.70;;;;;;;16.76;76.21;100274.75;5043149;28;20127;-61
2021/09/04 05:51:40;;;;;;;27.15;9.48;;;;;;;16.78;76.14;100275.22;5041511;28;20065;-66
2021/09/04 05:54:07;;;;;;;32.00;7.90;;;;;;;16.66;75.91;100258.13;5034509;28;20145;-63
2021/09/04 05:56:34;;;;;;;35.75;9.43;;;;;;;16.72;75.86;100273.72;5029504;28;20115;-63
2021/09/04 05:59:01;;;;;;;28.70;9.40;;;;;;;16.86;75.75;100298.16;5041797;28;20073;-62
2021/09/04 06:01:28;;;;;;;21.48;9.90;;;;;;;16.78;75.70;100292.16;5046445;28;20099;-64
2021/09/04 06:03:55;;;;;;;18.80;8.45;;;;;;;16.79;75.84;100299.47;5045725;28;20053;-64
2021/09/04 06:06:22;;;;;;;20.63;8.55;;;;;;;16.69;76.77;100301.75;5041724;28;20048;-64
2021/09/04 06:08:49;;;;;;;20.02;10.15;;;;;;;16.54;76.91;100275.66;5045209;28;20572;-63
2021/09/04 06:11:16;;;;;;;16.30;8.13;;;;;;;16.61;76.70;100299.72;5042345;28;20069;-64
2021/09/04 06:13:43;;;;;;;17.85;7.68;;;;;;;16.60;76.95;100301.72;5043938;28;20696;-64
2021/09/04 06:16:10;;;;;;;15.30;7.60;;;;;;;16.49;77.54;100286.25;5043278;28;20140;-63
2021/09/04 06:18:37;;;;;;;17.48;6.75;;;;;;;16.54;77.47;100298.19;5044453;28;20506;-63
2021/09/04 06:21:03;;;;;;;16.23;7.43;;;;;;;16.59;77.68;100305.69;5044583;28;20462;-64
2021/09/04 06:23:30;;;;;;;22.80;8.40;;;;;;;16.61;77.67;100311.81;5043047;28;20140;-62
2021/09/04 06:25:57;;;;;;;19.27;7.75;;;;;;;16.59;77.66;100306.53;5039536;28;20099;-63
2021/09/04 06:28:24;;;;;;;20.48;8.88;;;;;;;16.58;77.81;100309.66;5036063;28;20120;-62
2021/09/04 06:30:51;;;;;;;19.58;7.10;;;;;;;16.48;78.19;100290.25;5043621;28;20136;-62
2021/09/04 06:33:17;;;;;;;21.75;9.32;;;;;;;16.53;78.27;100301.34;5041315;28;20110;-60
2021/09/04 06:35:44;;;;;;;15.20;6.18;;;;;;;16.57;78.09;100314.47;5045086;28;20140;-63
2021/09/04 06:38:13;;;;;;;11.57;5.80;;;;;;;16.55;78.31;100310.31;5035172;28;20096;-62
2021/09/04 06:40:40;;;;;;;17.88;8.10;;;;;;;16.63;78.19;100311.50;5040523;28;20041;-61
2021/09/04 06:43:08;;;;;;;18.42;8.20;;;;;;;16.64;77.92;100302.72;5040606;28;20133;-66
2021/09/04 06:45:34;;;;;;;15.20;6.70;;;;;;;16.62;78.61;100307.84;5035880;28;20172;-62
2021/09/04 06:48:02;;;;;;;13.38;6.65;;;;;;;16.65;78.41;100303.53;5039389;28;20055;-64
2021/09/04 06:50:28;;;;;;;21.92;8.68;;;;;;;16.70;78.14;100312.69;5038448;28;20441;-67
2021/09/04 06:52:55;;;;;;;20.10;7.85;;;;;;;16.68;78.25;100314.16;5034600;28;20131;-71
2021/09/04 06:55:23;;;;;;;19.63;8.05;;;;;;;16.48;77.88;100259.25;5039041;28;20072;-65
2021/09/04 06:57:50;;;;;;;17.77;7.70;;;;;;;16.85;77.69;100319.03;5038249;28;20073;-66
2021/09/04 07:00:17;;;;;;;17.15;6.72;;;;;;;16.74;78.03;100307.22;5035417;28;20053;-70
2021/09/04 07:02:44;;;;;;;19.70;8.25;;;;;;;16.65;78.16;100304.38;5032187;28;21834;-62
2021/09/04 07:05:11;;;;;;;24.40;9.45;;;;;;;16.95;77.51;100318.72;5038550;28;20047;-64
2021/09/04 07:07:38;;;;;;;20.15;9.02;;;;;;;17.02;77.21;100319.06;5036856;28;20072;-66
2021/09/04 07:10:06;;;;;;;19.83;7.15;;;;;;;16.93;77.80;100319.06;5039934;28;20064;-66
2021/09/04 07:12:33;;;;;;;22.67;8.80;;;;;;;16.51;77.96;100281.97;5039298;28;20041;-68
2021/09/04 07:15:00;;;;;;;15.38;8.02;;;;;;;16.84;77.77;100328.69;5037832;28;20455;-67
2021/09/04 07:17:27;;;;;;;28.48;10.63;;;;;;;16.70;77.78;100301.41;5042996;28;20462;-67
2021/09/04 07:19:54;;;;;;;32.08;9.68;;;;;;;16.95;77.61;100321.56;5039865;28;20045;-68
2021/09/04 07:22:21;;;;;;;24.13;8.20;;;;;;;17.02;77.35;100317.09;5036381;28;20136;-67
2021/09/04 07:24:47;;;;;;;26.52;10.93;;;;;;;17.09;76.94;100310.13;5033464;28;20081;-67
2021/09/04 07:27:14;;;;;;;23.48;9.75;;;;;;;17.10;77.44;100323.91;5036749;28;20076;-67
2021/09/04 07:29:41;;;;;;;28.55;11.20;;;;;;;17.25;76.59;100319.78;5035745;28;20132;-66
2021/09/04 07:32:08;;;;;;;31.65;10.95;;;;;;;17.27;76.78;100328.75;5038889;28;20482;-66
2021/09/04 07:34:35;;;;;;;28.30;9.05;;;;;;;17.32;76.74;100322.09;5035815;28;20059;-66
2021/09/04 07:37:02;;;;;;;34.35;11.93;;;;;;;17.35;76.61;100324.25;5040387;28;20519;-66
2021/09/04 07:39:29;;;;;;;25.23;9.73;;;;;;;17.40;76.71;100315.63;5038091;28;20077;-66
2021/09/04 07:41:56;;;;;;;27.20;10.23;;;;;;;17.44;76.44;100325.09;5042225;28;20124;-67
2021/09/04 07:44:22;;;;;;;34.20;13.07;;;;;;;17.37;75.84;100273.97;5042759;28;20133;-66
2021/09/04 07:46:49;;;;;;;33.33;11.63;;;;;;;17.83;75.53;100314.78;5036939;28;20125;-66
2021/09/04 07:49:16;;;;;;;21.65;10.70;;;;;;;17.86;75.18;100314.13;5036305;28;20124;-66
2021/09/04 07:51:43;;;;;;;25.08;10.95;;;;;;;18.06;74.82;100341.66;5044104;28;20128;-66
2021/09/04 07:54:10;;;;;;;29.17;11.25;;;;;;;18.11;74.67;100330.16;5043747;28;20489;-66
2021/09/04 07:56:37;;;;;;;25.48;9.77;;;;;;;18.18;74.21;100324.81;5036752;28;20441;-67
2021/09/04 07:59:06;;;;;;;26.45;11.85;;;;;;;18.12;74.21;100314.03;5036190;28;20073;-66
2021/09/04 08:01:35;;;;;;;24.75;11.45;;;;;;;18.06;73.83;100307.75;5042328;28;20116;-66
2021/09/04 08:04:03;;;;;;;34.83;12.43;;;;;;;18.19;73.82;100317.19;5033785;28;20119;-67
2021/09/04 08:06:30;;;;;;;31.27;12.45;;;;;;;18.53;73.76;100332.34;5042846;28;20505;-66
2021/09/04 08:08:57;;;;;;;26.17;10.32;;;;;;;18.86;73.20;100335.38;5037349;28;20131;-66
2021/09/04 08:11:24;;;;;;;24.73;10.35;;;;;;;19.30;72.85;100333.06;5040934;28;20128;-66
2021/09/04 08:13:51;;;;;;;25.50;10.38;;;;;;;19.82;71.75;100338.31;5044625;28;20155;-67
2021/09/04 08:16:18;;;;;;;23.02;10.23;;;;;;;20.35;70.83;100333.75;5037639;28;20037;-62
2021/09/04 08:18:45;;;;;;;18.67;10.15;;;;;;;20.97;69.54;100343.97;5043057;28;20048;-63
2021/09/04 08:21:11;;;;;;;17.77;8.00;;;;;;;21.15;68.37;100355.06;5049766;28;20127;-68
2021/09/04 08:23:38;;;;;;;19.98;9.90;;;;;;;21.38;67.20;100364.78;5037297;28;20511;-63
2021/09/04 08:26:05;;;;;;;20.67;9.45;;;;;;;21.78;66.54;100346.91;5038446;28;20467;-65
2021/09/04 08:28:32;;;;;;;20.80;9.40;;;;;;;22.42;65.55;100345.84;5037875;28;20561;-70
2021/09/04 08:30:59;;;;;;;20.67;8.68;;;;;;;23.08;64.09;100358.53;5039563;28;20150;-74
2021/09/04 08:33:26;;;;;;;26.92;9.23;;;;;;;23.35;62.84;100359.59;5036616;28;20056;-68
2021/09/04 08:35:53;;;;;;;21.00;8.70;;;;;;;23.78;62.55;100360.53;5033447;28;20080;-67
2021/09/04 08:38:20;;;;;;;20.58;10.95;;;;;;;23.80;61.54;100363.88;5044374;28;20074;-71
2021/09/04 08:40:49;;;;;;;16.95;8.55;;;;;;;23.82;61.28;100367.16;5042102;28;20081;-64
2021/09/04 08:43:16;;;;;;;17.58;8.70;;;;;;;23.72;61.04;100369.78;5040178;28;20127;-63
2021/09/04 08:45:44;;;;;;;17.88;9.93;;;;;;;23.79;60.87;100372.78;5039759;28;20533;-65
2021/09/04 08:48:12;;;;;;;20.13;9.45;;;;;;;23.77;60.18;100369.50;5041096;28;20136;-65
2021/09/04 08:50:38;;;;;;;16.50;8.50;;;;;;;23.54;60.59;100346.56;5050836;28;20041;-65
2021/09/04 08:53:06;;;;;;;15.38;9.40;;;;;;;23.75;59.79;100367.00;5047471;28;20128;-65
2021/09/04 08:55:33;;;;;;;15.20;9.10;;;;;;;23.94;59.94;100362.50;5034511;28;20064;-65
2021/09/04 08:58:00;;;;;;;17.75;9.40;;;;;;;24.32;59.28;100359.59;5035775;28;20047;-64
2021/09/04 09:00:35;;;;;;;15.80;8.60;;;;;;;24.85;58.43;100361.78;5035570;28;20042;-64
2021/09/04 09:03:03;;;;;;;18.65;9.63;;;;;;;25.45;57.19;100361.13;5031943;28;20060;-64
2021/09/04 09:05:39;;;;;;;18.13;8.15;;;;;;;25.81;56.54;100355.91;5033102;28;20111;-65
2021/09/04 09:08:08;;;;;;;13.98;8.85;;;;;;;25.90;54.99;100360.13;5038173;28;20042;-65
2021/09/04 09:10:40;;;;;;;16.52;8.73;;;;;;;25.98;54.89;100366.75;5033467;28;20160;-64
2021/09/04 09:13:07;;;;;;;17.33;9.10;;;;;;;26.21;54.10;100370.28;5050394;28;20140;-65
2021/09/04 09:15:37;;;;;;;15.27;8.43;;;;;;;26.22;53.22;100360.50;5052984;28;20068;-65
2021/09/04 09:18:10;;;;;;;13.35;8.50;;;;;;;25.93;53.33;100369.97;5046427;28;20096;-65
2021/09/04 09:20:38;;;;;;;13.55;8.57;;;;;;;25.90;53.42;100368.69;5032540;28;20084;-65
2021/09/04 09:23:18;;;;;;;19.35;9.00;;;;;;;26.17;52.99;100389.47;5032773;28;20474;-64
2021/09/04 09:25:46;;;;;;;17.95;7.93;;;;;;;26.48;52.30;100370.22;5034310;28;20088;-64
2021/09/04 09:28:18;;;;;;;15.77;8.63;;;;;;;26.65;52.08;100380.19;5034091;28;20049;-64
2021/09/04 09:30:47;;;;;;;14.32;8.35;;;;;;;26.92;51.57;100363.66;5033239;28;20092;-64
2021/09/04 09:33:17;;;;;;;13.67;8.53;;;;;;;27.25;51.19;100370.47;5032594;28;20046;-64
2021/09/04 09:35:48;;;;;;;16.42;7.90;;;;;;;27.47;50.14;100365.72;5032555;28;20361;-64
2021/09/04 09:38:25;;;;;;;15.10;8.80;;;;;;;27.98;49.80;100356.97;5032232;28;20075;-64
2021/09/04 09:40:54;;;;;;;12.80;6.65;;;;;;;28.74;48.71;100360.88;5033197;28;20084;-64
2021/09/04 09:43:24;;;;;;;16.70;7.53;;;;;;;29.45;47.04;100365.78;5033072;28;20132;-64
2021/09/04 09:45:53;;;;;;;14.50;7.82;;;;;;;30.04;45.50;100354.50;5049489;28;20045;-64
2021/09/04 09:48:25;;;;;;;12.68;8.10;;;;;;;30.45;44.80;100366.22;5052360;28;20715;-64
2021/09/04 09:50:54;;;;;;;12.43;7.50;;;;;;;30.54;43.52;100334.06;5052491;28;20487;-65
2021/09/04 09:53:22;;;;;;;13.43;7.05;;;;;;;30.84;43.46;100353.63;5052174;28;20136;-64
2021/09/04 09:55:52;;;;;;;14.40;8.53;;;;;;;30.96;43.31;100360.13;5039958;28;20048;-64
2021/09/04 09:58:21;;;;;;;12.48;7.70;;;;;;;31.10;42.79;100357.09;5032855;28;20291;-65
2021/09/04 10:00:54;;;;;;;12.02;7.70;;;;;;;31.01;43.29;100366.25;5032344;28;20549;-65
2021/09/04 10:03:25;;;;;;;12.48;7.47;;;;;;;31.13;42.03;100368.59;5032210;28;20088;-64
2021/09/04 10:05:54;;;;;;;11.77;7.10;;;;;;;31.43;41.89;100374.97;5032220;28;20056;-65
2021/09/04 10:08:23;;;;;;;11.70;7.83;;;;;;;31.81;40.95;100373.69;5038275;28;20128;-65
2021/09/04 10:10:50;;;;;;;11.05;6.10;;;;;;;32.35;39.39;100349.09;5032071;28;20886;-65
2021/09/04 10:13:17;;;;;;;8.38;5.30;;;;;;;32.94;39.06;100372.53;5032762;28;20046;-63
2021/09/04 10:15:50;;;;;;;9.65;5.72;;;;;;;33.41;38.40;100352.31;5032089;28;20464;-63
2021/09/04 10:18:23;;;;;;;14.13;6.80;;;;;;;33.34;37.94;100357.44;5037234;28;20073;-63
2021/09/04 10:21:10;;;;;;;12.25;6.40;;;;;;;33.03;38.68;100349.69;5041960;28;20124;-63
2021/09/04 10:23:40;;;;;;;14.05;6.85;;;;;;;33.38;37.24;100346.59;5031858;28;20084;-63
2021/09/04 10:26:28;;;;;;;12.52;7.00;;;;;;;32.93;37.66;100342.00;5032756;28;20049;-63
2021/09/04 10:29:12;;;;;;;13.95;6.38;;;;;;;32.94;38.00;100342.81;5033264;28;20076;-64
2021/09/04 10:31:58;;;;;;;14.05;7.13;;;;;;;32.83;38.09;100350.84;5031842;28;20484;-64
2021/09/04 10:34:27;;;;;;;11.95;6.70;;;;;;;33.23;37.22;100351.81;5031869;28;20083;-63
2021/09/04 10:37:04;;;;;;;11.02;6.15;;;;;;;33.63;36.93;100341.16;5036914;28;20072;-64
2021/09/04 10:40:00;;;;;;;9.27;6.00;;;;;;;33.69;36.57;100344.34;5031732;28;20052;-63
2021/09/04 10:42:33;;;;;;;9.88;6.05;;;;;;;33.32;36.34;100342.56;5032487;28;20611;-63
2021/09/04 10:45:03;;;;;;;8.20;5.75;;;;;;;33.24;36.61;100360.06;5031780;28;20049;-63
2021/09/04 10:47:47;;;;;;;8.82;4.93;;;;;;;33.45;36.28;100335.69;5030850;28;20482;-63
2021/09/04 10:50:20;;;;;;;8.65;5.03;;;;;;;33.71;35.38;100328.19;5031604;28;20041;-64
2021/09/04 10:52:49;;;;;;;8.70;5.20;;;;;;;33.97;34.72;100342.94;5032231;28;20049;-63
2021/09/04 10:55:18;;;;;;;5.88;4.30;;;;;;;34.24;34.65;100334.09;5031502;28;20069;-63
2021/09/04 10:57:47;;;;;;;7.38;4.38;;;;;;;34.52;33.82;100326.00;5034736;28;20132;-63
2021/09/04 11:00:18;;;;;;;10.57;4.72;;;;;;;34.18;34.11;100330.06;5035018;28;20080;-63
2021/09/04 11:02:48;;;;;;;8.05;4.68;;;;;;;33.86;34.20;100322.88;5054141;28;20111;-63
2021/09/04 11:05:38;;;;;;;6.03;4.07;;;;;;;34.32;34.29;100320.25;5055352;28;20049;-63
2021/09/04 11:08:07;;;;;;;7.10;4.13;;;;;;;34.64;33.09;100323.22;5045476;28;22049;-63
2021/09/04 11:10:34;;;;;;;6.33;4.00;;;;;;;35.03;33.21;100320.59;5054183;28;20045;-63
2021/09/04 11:13:13;;;;;;;10.18;4.93;;;;;;;35.62;32.30;100310.69;5051423;28;20041;-64
2021/09/04 11:15:44;;;;;;;;;;;;;;;35.64;35.18;100313.16;5044094;28;20137;-64
2021/09/04 11:18:12;;;;;;;6.45;3.85;;;;;;;36.45;32.01;100309.84;5051350;28;20407;-63
2021/09/04 11:20:47;;;;;;;9.40;4.83;;;;;;;36.51;31.26;100305.09;5036750;28;20128;-63